Time;durP1;ratioP1;P1;durP2;ratioP2;P2;SDS_P1;SDS_P2;PMS_P1;PMS_P2;Temp;Humidity;BMP_temperature;BMP_pressure;BME280_temperature;BME280_humidity;BME280_pressure;Samples;Min_cycle;Max_cycle;Signal;HPM_P1;HPM_P2
2024/02/18 00:00:07;;;;;;;;;;;;;;;4.48;100.00;101405.88;4975086;28;19922;-82
2024/02/18 00:02:34;;;;;;;;;;;;;;;4.47;100.00;101398.84;4990889;28;19990;-79
2024/02/18 00:05:00;;;;;;;;;;;;;;;4.46;100.00;101397.09;4992501;28;20448;-80
2024/02/18 00:07:25;;;;;;;;;;;;;;;4.42;100.00;101403.19;4992579;28;20064;-84
2024/02/18 00:09:52;;;;;;;;;;;;;;;4.50;100.00;101404.13;4992474;28;19917;-84
2024/02/18 00:12:17;;;;;;;;;;;;;;;4.50;100.00;101403.22;4992710;28;19979;-81
2024/02/18 00:14:43;;;;;;;;;;;;;;;4.46;100.00;101394.47;4996448;28;20607;-83
2024/02/18 00:17:08;;;;;;;;;;;;;;;4.41;100.00;101393.56;4995043;28;19928;-78
2024/02/18 00:19:33;;;;;;;;;;;;;;;4.45;100.00;101394.44;4996302;28;20020;-79
2024/02/18 00:21:59;;;;;;;;;;;;;;;4.46;100.00;101397.09;4996200;28;20333;-79
2024/02/18 00:24:24;;;;;;;;;;;;;;;4.42;100.00;101390.06;4996062;28;19941;-81
2024/02/18 00:26:51;;;;;;;;;;;;;;;4.44;100.00;101388.31;4978843;28;19968;-80
2024/02/18 00:29:16;;;;;;;;;;;;;;;4.41;100.00;101387.44;4979007;28;19972;-86
2024/02/18 00:31:42;;;;;;;;;;;;;;;4.38;100.00;101382.16;4977378;28;19921;-81
2024/02/18 00:34:07;;;;;;;;;;;;;;;4.38;100.00;101382.16;4978543;28;20427;-79
2024/02/18 00:36:32;;;;;;;;;;;;;;;4.82;100.00;101377.22;4995919;28;19917;-90
2024/02/18 08:34:11;;;;;;;;;;;;;;;6.06;100.00;101119.78;5010420;28;20394;-82
2024/02/18 08:36:36;;;;;;;;;;;;;;;6.08;100.00;101112.75;5015656;28;20435;-81
2024/02/18 08:39:01;;;;;;;;;;;;;;;5.97;100.00;101107.56;5015663;28;19997;-81
2024/02/18 08:41:27;;;;;;;;;;;;;;;5.95;100.00;101110.16;5015495;28;20028;-81
2024/02/18 08:43:53;;;;;;;;;;;;;;;6.02;100.00;101104.91;5015487;28;20004;-81
2024/02/18 08:46:18;;;;;;;;;;;;;;;5.98;100.00;101098.75;5014110;28;19921;-81
2024/02/18 08:48:43;;;;;;;;;;;;;;;5.98;100.00;101099.66;5015425;28;19925;-81
2024/02/18 08:51:09;;;;;;;;;;;;;;;6.06;100.00;101104.00;5015364;28;19918;-81
2024/02/18 08:53:36;;;;;;;;;;;;;;;6.03;100.00;101107.53;5015558;28;20004;-81
2024/02/18 08:56:01;;;;;;;;;;;;;;;5.99;100.00;101095.25;5015397;28;19918;-82
2024/02/18 08:58:27;;;;;;;;;;;;;;;6.01;100.00;101096.13;4997390;28;19968;-80
2024/02/18 09:00:53;;;;;;;;;;;;;;;6.03;100.00;101099.66;5013796;28;19921;-81
2024/02/18 09:03:18;;;;;;;;;;;;;;;5.99;100.00;101096.13;5015165;28;19917;-80
2024/02/18 09:05:43;;;;;;;;;;;;;;;5.96;100.00;101096.13;5015000;28;19924;-81
2024/02/18 09:08:08;;;;;;;;;;;;;;;6.03;100.00;101096.13;5015121;28;19961;-81
2024/02/18 09:10:35;;;;;;;;;;;;;;;6.05;100.00;101086.47;5015033;28;19924;-81
2024/02/18 09:13:01;;;;;;;;;;;;;;;6.03;100.00;101080.34;5014924;28;20300;-81
2024/02/18 09:15:30;;;;;;;;;;;;;;;6.04;100.00;101075.06;5015163;28;19924;-81
2024/02/18 09:17:56;;;;;;;;;;;;;;;5.95;100.00;101081.22;5013483;28;20435;-82
2024/02/18 09:20:22;;;;;;;;;;;;;;;6.02;100.00;101074.22;5014855;28;20011;-79
2024/02/18 09:22:47;;;;;;;;;;;;;;;6.05;100.00;101070.66;5015041;28;20012;-80
2024/02/18 09:25:12;;;;;;;;;;;;;;;5.98;100.00;101072.44;5014773;28;19924;-81
2024/02/18 09:27:37;;;;;;;;;;;;;;;5.95;100.00;101078.59;5014747;28;20011;-81
2024/02/18 09:30:03;;;;;;;;;;;;;;;5.99;100.00;101069.81;5014577;28;19960;-80
2024/02/18 09:32:28;;;;;;;;;;;;;;;5.94;100.00;101066.31;5013159;28;19929;-80
2024/02/18 09:34:53;;;;;;;;;;;;;;;6.03;100.00;101069.81;5014489;28;19921;-80
2024/02/18 09:37:18;;;;;;;;;;;;;;;5.95;100.00;101062.81;5014536;28;19921;-80
2024/02/18 09:39:44;;;;;;;;;;;;;;;5.95;100.00;101059.28;5013558;28;20013;-82
2024/02/18 09:42:09;;;;;;;;;;;;;;;5.99;100.00;101064.56;5013566;28;20009;-79
2024/02/18 09:44:35;;;;;;;;;;;;;;;6.03;100.00;101054.91;5014109;28;19959;-81
2024/02/18 09:47:02;;;;;;;;;;;;;;;6.00;100.00;101039.16;4994381;28;19918;-79
2024/02/18 09:49:32;;;;;;;;;;;;;;;6.05;100.00;101040.00;5013492;28;19917;-80
2024/02/18 09:51:59;;;;;;;;;;;;;;;6.00;100.00;101040.00;5013196;28;20353;-80
2024/02/18 09:54:24;;;;;;;;;;;;;;;6.04;100.00;101040.00;5014074;28;19961;-79
2024/02/18 09:56:49;;;;;;;;;;;;;;;6.06;100.00;101025.06;5014146;28;19979;-80
2024/02/18 09:59:15;;;;;;;;;;;;;;;6.07;100.00;101029.47;5014026;28;19913;-80
2024/02/18 10:01:44;;;;;;;;;;;;;;;6.09;100.00;101025.06;4987035;28;19925;-80
2024/02/18 10:04:09;;;;;;;;;;;;;;;6.00;100.00;101026.84;5014169;28;19918;-80
2024/02/18 14:00:43;;;;;;;;;;;;;;;6.12;100.00;100709.25;4999772;28;19933;-83
2024/02/18 14:03:09;;;;;;;;;;;;;;;6.18;100.00;100720.59;4996633;28;19925;-83
2024/02/18 14:05:34;;;;;;;;;;;;;;;6.14;100.00;100725.91;5013114;28;19924;-83
2024/02/18 14:07:59;;;;;;;;;;;;;;;6.17;100.00;100712.72;5014351;28;20299;-85
2024/02/18 14:10:27;;;;;;;;;;;;;;;6.08;100.00;100715.44;5013629;28;19924;-84
2024/02/18 14:12:52;;;;;;;;;;;;;;;6.13;100.00;100711.88;5014449;28;20449;-87
2024/02/18 14:15:17;;;;;;;;;;;;;;;6.09;100.00;100709.28;5012746;28;20017;-86
2024/02/18 14:17:42;;;;;;;;;;;;;;;6.11;100.00;100704.88;5013713;28;19921;-84
2024/02/18 14:20:10;;;;;;;;;;;;;;;6.21;100.00;100706.53;5013198;28;20023;-84
2024/02/18 14:22:35;;;;;;;;;;;;;;;6.21;100.00;100701.28;5013664;28;19925;-85
2024/02/18 14:25:01;;;;;;;;;;;;;;;6.17;100.00;100700.44;5013420;28;20411;-84
2024/02/18 14:27:26;;;;;;;;;;;;;;;6.21;100.00;100690.75;5013365;28;19921;-87
2024/02/18 14:29:51;;;;;;;;;;;;;;;6.18;100.00;100691.63;5011857;28;19944;-87
2024/02/18 14:32:17;;;;;;;;;;;;;;;6.35;100.00;100683.56;4995957;28;19928;-86
2024/02/18 14:34:44;;;;;;;;;;;;;;;6.22;100.00;100691.59;5012900;28;19933;-88
2024/02/18 14:37:09;;;;;;;;;;;;;;;6.24;100.00;100681.94;4996321;28;20408;-85
2024/02/18 14:39:35;;;;;;;;;;;;;;;6.28;100.00;100684.50;5013414;28;19953;-85
2024/02/18 14:42:00;;;;;;;;;;;;;;;6.30;100.00;100687.13;5012925;28;20048;-84
2024/02/18 14:44:28;;;;;;;;;;;;;;;6.24;100.00;100680.19;4994445;28;19927;-87
2024/02/18 14:46:53;;;;;;;;;;;;;;;6.29;100.00;100682.78;5013722;28;19925;-85
2024/02/18 14:49:19;;;;;;;;;;;;;;;6.32;100.00;100673.06;5012119;28;19926;-85
2024/02/18 14:51:44;;;;;;;;;;;;;;;6.24;100.00;100658.25;5012468;28;19937;-86
2024/02/18 14:54:09;;;;;;;;;;;;;;;6.30;100.00;100663.44;4995697;28;20012;-88
2024/02/18 14:56:34;;;;;;;;;;;;;;;6.35;100.00;100659.00;5012788;28;19925;-87
2024/02/18 14:59:00;;;;;;;;;;;;;;;6.28;100.00;100665.22;5011846;28;19979;-85
2024/02/18 15:01:25;;;;;;;;;;;;;;;6.32;100.00;100665.19;4995786;28;20028;-83
2024/02/18 15:03:50;;;;;;;;;;;;;;;6.31;100.00;100660.78;5012534;28;19922;-84
2024/02/18 15:06:16;;;;;;;;;;;;;;;6.34;100.00;100668.66;4995462;28;19921;-86
2024/02/18 15:08:41;;;;;;;;;;;;;;;6.28;100.00;100663.47;5012022;28;19924;-89
2024/02/18 15:11:07;;;;;;;;;;;;;;;6.34;100.00;100666.03;4994866;28;19944;-86
2024/02/18 15:13:32;;;;;;;;;;;;;;;6.33;100.00;100655.50;5011614;28;19926;-85
2024/02/18 15:15:57;;;;;;;;;;;;;;;6.34;100.00;100654.63;5012677;28;20387;-86
2024/02/18 15:18:23;;;;;;;;;;;;;;;6.40;100.00;100648.41;4995351;28;19922;-87
2024/02/18 15:20:48;;;;;;;;;;;;;;;6.33;100.00;100651.13;4995327;28;20377;-90
2024/02/18 15:23:14;;;;;;;;;;;;;;;6.38;100.00;100650.19;4997030;28;19921;-86
2024/02/18 15:25:39;;;;;;;;;;;;;;;6.39;100.00;100652.81;5012385;28;19921;-86
2024/02/18 15:28:04;;;;;;;;;;;;;;;6.40;100.00;100659.84;5013015;28;19922;-87
2024/02/18 15:30:30;;;;;;;;;;;;;;;6.42;100.00;100662.44;5011299;28;19975;-87
2024/02/18 15:32:55;;;;;;;;;;;;;;;6.41;100.00;100661.56;4998148;28;20067;-87
2024/02/18 15:35:20;;;;;;;;;;;;;;;6.40;100.00;100665.09;5012430;28;19917;-87
2024/02/18 15:37:45;;;;;;;;;;;;;;;6.43;100.00;100672.06;5011835;28;20360;-86
2024/02/18 15:40:11;;;;;;;;;;;;;;;6.38;100.00;100669.47;5012223;28;19929;-87
2024/02/18 15:42:36;;;;;;;;;;;;;;;6.47;100.00;100661.50;5011913;28;20292;-87
2024/02/18 15:45:02;;;;;;;;;;;;;;;6.41;100.00;100661.56;5010710;28;19917;-86
2024/02/18 15:47:30;;;;;;;;;;;;;;;6.46;100.00;100653.59;5012117;28;20104;-87
2024/02/18 15:49:56;;;;;;;;;;;;;;;6.32;100.00;100653.78;5010891;28;19980;-85
2024/02/18 15:52:22;;;;;;;;;;;;;;;6.35;100.00;100641.47;5011720;28;19918;-87
2024/02/18 15:54:47;;;;;;;;;;;;;;;6.45;100.00;100646.63;5011914;28;19932;-85
2024/02/18 15:57:12;;;;;;;;;;;;;;;6.43;100.00;100645.75;5012291;28;19918;-88
2024/02/18 15:59:38;;;;;;;;;;;;;;;6.51;100.00;100639.50;5011003;28;20438;-84
2024/02/18 16:02:03;;;;;;;;;;;;;;;6.36;100.00;100645.81;4995047;28;19928;-87
2024/02/18 16:04:32;;;;;;;;;;;;;;;6.34;100.00;100649.38;5011528;28;19921;-88
2024/02/18 16:06:57;;;;;;;;;;;;;;;6.39;100.00;100636.16;4993605;28;20364;-85
2024/02/18 16:09:22;;;;;;;;;;;;;;;6.38;100.00;100631.78;4995205;28;19924;-85
2024/02/18 16:11:48;;;;;;;;;;;;;;;6.40;100.00;100622.09;5012008;28;20926;-87
2024/02/18 16:14:13;;;;;;;;;;;;;;;6.29;100.00;100619.59;5010144;28;19960;-86
2024/02/18 16:16:48;;;;;;;;;;;;;;;6.47;100.00;100619.34;5012256;28;19932;-93
2024/02/18 16:19:14;;;;;;;;;;;;;;;6.44;100.00;100608.88;5014270;28;19991;-86
2024/02/18 16:21:39;;;;;;;;;;;;;;;6.44;100.00;100608.00;5011346;28;19992;-92
2024/02/18 16:24:05;;;;;;;;;;;;;;;6.50;100.00;100607.94;5012996;28;19929;-86
2024/02/18 16:26:30;;;;;;;;;;;;;;;6.49;100.00;100614.06;5012120;28;19921;-86
2024/02/18 16:28:55;;;;;;;;;;;;;;;6.48;100.00;100607.09;5010363;28;20011;-86
2024/02/18 16:31:21;;;;;;;;;;;;;;;6.47;100.00;100603.56;5012094;28;19956;-89
2024/02/18 16:33:46;;;;;;;;;;;;;;;6.53;100.00;100607.88;5011685;28;19917;-88
2024/02/18 16:36:12;;;;;;;;;;;;;;;6.48;100.00;100620.25;4994230;28;19917;-87
2024/02/18 16:38:37;;;;;;;;;;;;;;;6.50;100.00;100619.31;4994290;28;19921;-86
2024/02/18 16:41:03;;;;;;;;;;;;;;;6.42;100.00;100609.78;5011324;28;19979;-86
2024/02/18 16:46:20;;;;;;;;;;;;;;;6.49;100.00;100598.28;4993069;28;19921;-90
2024/02/18 16:48:45;;;;;;;;;;;;;;;6.52;100.00;100601.72;5012628;28;19917;-89
2024/02/18 16:51:20;;;;;;;;;;;;;;;6.51;100.00;100609.66;5012834;28;19925;-90
2024/02/18 16:53:45;;;;;;;;;;;;;;;6.49;100.00;100608.81;5012836;28;19921;-88
2024/02/18 16:56:11;;;;;;;;;;;;;;;6.54;100.00;100604.34;5016031;28;19963;-85
2024/02/18 16:58:42;;;;;;;;;;;;;;;6.50;100.00;100602.66;5014996;28;19961;-89
2024/02/18 17:01:45;;;;;;;;;;;;;;;6.54;100.00;100605.25;5014826;28;19925;-91
2024/02/18 17:04:10;;;;;;;;;;;;;;;6.57;100.00;100604.31;4997515;28;20020;-90
2024/02/18 17:06:42;;;;;;;;;;;;;;;6.59;100.00;100599.03;4998331;28;20024;-91
2024/02/18 17:09:08;;;;;;;;;;;;;;;6.59;100.00;100599.03;5015216;28;19983;-86
2024/02/18 17:11:33;;;;;;;;;;;;;;;6.58;100.00;100605.19;4997650;28;20013;-82
2024/02/18 17:14:01;;;;;;;;;;;;;;;6.61;100.00;100595.50;5014742;28;20007;-89
2024/02/18 17:16:26;;;;;;;;;;;;;;;6.66;100.00;100598.91;4997485;28;19924;-86
2024/02/18 17:19:12;;;;;;;;;;;;;;;6.67;100.00;100602.41;5015205;28;19921;-90
2024/02/18 17:21:41;;;;;;;;;;;;;;;6.72;100.00;100598.84;4983844;28;20354;-88
2024/02/18 17:24:08;;;;;;;;;;;;;;;6.65;100.00;100597.19;4997079;28;19924;-86
2024/02/18 17:26:33;;;;;;;;;;;;;;;6.63;100.00;100601.59;5013938;28;19925;-85
2024/02/18 17:29:11;;;;;;;;;;;;;;;6.66;100.00;100593.66;5015567;28;19922;-94
2024/02/18 17:31:37;;;;;;;;;;;;;;;6.68;100.00;100591.88;5014357;28;19961;-89
2024/02/18 17:34:02;;;;;;;;;;;;;;;6.64;100.00;100603.34;5013817;28;20018;-86
2024/02/18 17:36:27;;;;;;;;;;;;;;;6.65;100.00;100605.09;5015039;28;19921;-87
2024/02/18 17:38:53;;;;;;;;;;;;;;;6.69;100.00;100603.28;5014975;28;19940;-91
2024/02/18 17:41:18;;;;;;;;;;;;;;;6.61;100.00;100600.75;5014988;28;19932;-85
2024/02/18 17:43:43;;;;;;;;;;;;;;;6.49;100.00;100606.19;5013038;28;19925;-89
2024/02/18 17:46:14;;;;;;;;;;;;;;;6.62;100.00;100606.88;4998363;28;19987;-86
2024/02/18 17:48:49;;;;;;;;;;;;;;;6.67;100.00;100608.56;5016808;28;19924;-93
2024/02/18 17:51:38;;;;;;;;;;;;;;;6.47;100.00;100614.09;5014491;28;19924;-89
2024/02/18 17:54:04;;;;;;;;;;;;;;;6.62;100.00;100615.69;5013829;28;19976;-87
2024/02/18 17:56:30;;;;;;;;;;;;;;;6.62;100.00;100613.03;5013473;28;19926;-89
2024/02/18 17:58:58;;;;;;;;;;;;;;;6.66;100.00;100603.31;5013013;28;19921;-91
2024/02/18 18:01:23;;;;;;;;;;;;;;;6.72;100.00;100605.88;5013090;28;19943;-85
2024/02/18 18:04:12;;;;;;;;;;;;;;;6.65;100.00;100607.75;5014218;28;20439;-90
2024/02/18 18:06:37;;;;;;;;;;;;;;;6.71;100.00;100601.50;4996173;28;19926;-83
2024/02/18 18:09:02;;;;;;;;;;;;;;;6.70;100.00;100605.00;5016310;28;20008;-90
2024/02/18 18:11:28;;;;;;;;;;;;;;;6.72;100.00;100604.09;4995962;28;19957;-87
2024/02/18 18:14:01;;;;;;;;;;;;;;;6.72;100.00;100606.75;4995877;28;19960;-87
2024/02/18 18:16:29;;;;;;;;;;;;;;;6.71;100.00;100607.63;4998329;28;19921;-92
2024/02/18 18:18:54;;;;;;;;;;;;;;;6.73;100.00;100604.97;5014805;28;19975;-92
2024/02/18 18:21:19;;;;;;;;;;;;;;;6.78;100.00;100602.28;5016510;28;20020;-89
2024/02/18 18:23:45;;;;;;;;;;;;;;;6.80;100.00;100611.03;5013793;28;20352;-85
2024/02/18 18:26:10;;;;;;;;;;;;;;;6.78;100.00;100612.81;5013553;28;19921;-87
2024/02/18 18:28:35;;;;;;;;;;;;;;;6.71;100.00;100605.00;4995704;28;20396;-92
2024/02/18 18:31:02;;;;;;;;;;;;;;;6.81;100.00;100602.22;5013799;28;20420;-88
2024/02/18 18:33:41;;;;;;;;;;;;;;;8.65;100.00;100599.84;5012334;28;20301;-88
2024/02/18 18:36:32;;;;;;;;;;;;;;;7.59;100.00;100600.97;5013959;28;19921;-91
2024/02/18 18:38:57;;;;;;;;;;;;;;;7.26;100.00;100594.53;5014050;28;19929;-88
2024/02/18 18:41:22;;;;;;;;;;;;;;;7.10;100.00;100588.63;4998042;28;19922;-88
2024/02/18 18:43:47;;;;;;;;;;;;;;;7.07;100.00;100594.81;5011592;28;20373;-88
2024/02/18 18:46:13;;;;;;;;;;;;;;;7.08;100.00;100599.19;5015236;28;19921;-92
2024/02/18 18:48:38;;;;;;;;;;;;;;;6.97;100.00;100600.25;4997503;28;19925;-89
2024/02/18 18:51:03;;;;;;;;;;;;;;;6.97;100.00;100593.19;4997405;28;19918;-86
2024/02/18 18:53:29;;;;;;;;;;;;;;;6.97;100.00;100597.59;5013935;28;19952;-86
2024/02/18 18:55:54;;;;;;;;;;;;;;;6.93;100.00;100602.06;5013050;28;19922;-89
2024/02/18 18:58:20;;;;;;;;;;;;;;;6.93;100.00;100596.78;4996012;28;19930;-85
2024/02/18 19:00:45;;;;;;;;;;;;;;;6.95;100.00;100588.88;5014390;28;19969;-88
2024/02/18 19:03:10;;;;;;;;;;;;;;;6.95;100.00;100589.72;5014284;28;19999;-89
2024/02/18 19:05:35;;;;;;;;;;;;;;;6.90;100.00;100591.56;5016319;28;19971;-87
2024/02/18 19:08:01;;;;;;;;;;;;;;;6.94;100.00;100598.53;5013693;28;20395;-91
2024/02/18 19:10:26;;;;;;;;;;;;;;;6.96;100.00;100598.53;5013018;28;19921;-89
2024/02/18 19:12:51;;;;;;;;;;;;;;;6.94;100.00;100600.28;4995747;28;20293;-87
2024/02/18 19:15:17;;;;;;;;;;;;;;;6.98;100.00;100597.59;5012333;28;20300;-89
2024/02/18 19:17:43;;;;;;;;;;;;;;;6.94;100.00;100593.28;4996170;28;19996;-91
2024/02/18 19:20:08;;;;;;;;;;;;;;;6.93;100.00;100588.03;4995958;28;20372;-87
2024/02/18 19:22:33;;;;;;;;;;;;;;;6.90;100.00;100592.44;5013395;28;19940;-89
2024/02/18 19:24:59;;;;;;;;;;;;;;;6.89;100.00;100600.34;5013068;28;20273;-90
2024/02/18 19:27:24;;;;;;;;;;;;;;;6.94;100.00;100593.28;4995559;28;19988;-91
2024/02/18 19:29:50;;;;;;;;;;;;;;;6.90;100.00;100592.44;5012281;28;20300;-84
2024/02/18 19:32:15;;;;;;;;;;;;;;;6.93;100.00;100594.16;5012735;28;20056;-91
2024/02/18 19:34:40;;;;;;;;;;;;;;;6.96;100.00;100590.63;4996130;28;19971;-93
2024/02/18 19:37:05;;;;;;;;;;;;;;;6.89;100.00;100592.44;5012396;28;19925;-90
2024/02/18 19:39:32;;;;;;;;;;;;;;;6.94;100.00;100598.53;5012558;28;19929;-89
2024/02/18 19:41:58;;;;;;;;;;;;;;;6.98;100.00;100602.84;5012151;28;20434;-88
2024/02/18 19:44:23;;;;;;;;;;;;;;;6.98;100.00;100602.84;5011348;28;20004;-88
2024/02/18 19:46:50;;;;;;;;;;;;;;;7.00;100.00;100592.28;5011607;28;19925;-86
2024/02/18 19:49:16;;;;;;;;;;;;;;;6.90;100.00;100596.84;5012575;28;19976;-88
2024/02/18 19:51:42;;;;;;;;;;;;;;;6.84;100.00;100596.91;5013439;28;20019;-89
2024/02/18 19:54:07;;;;;;;;;;;;;;;6.92;100.00;100597.69;5012499;28;19917;-86
2024/02/18 19:56:34;;;;;;;;;;;;;;;6.94;100.00;100598.53;5013435;28;20288;-91
2024/02/18 19:58:59;;;;;;;;;;;;;;;6.97;100.00;100597.59;5010817;28;19922;-91
2024/02/18 20:01:25;;;;;;;;;;;;;;;7.00;100.00;100598.44;4982502;28;19932;-88
2024/02/18 20:03:50;;;;;;;;;;;;;;;6.94;100.00;100606.44;4981027;28;20329;-92
2024/02/18 20:06:18;;;;;;;;;;;;;;;7.01;100.00;100601.94;4982120;28;19933;-89
2024/02/18 20:08:43;;;;;;;;;;;;;;;6.99;100.00;100611.63;4983362;28;19957;-90
2024/02/18 20:11:08;;;;;;;;;;;;;;;6.98;100.00;100605.50;4983140;28;20349;-86
2024/02/18 20:13:34;;;;;;;;;;;;;;;6.92;100.00;100602.94;4980486;28;19928;-92
2024/02/18 20:16:00;;;;;;;;;;;;;;;6.87;100.00;100602.16;4982835;28;20284;-92
2024/02/18 20:18:25;;;;;;;;;;;;;;;6.93;100.00;100599.44;4984160;28;20390;-85
2024/02/18 20:20:51;;;;;;;;;;;;;;;6.89;100.00;100609.16;4984223;28;19923;-93
2024/02/18 20:23:19;;;;;;;;;;;;;;;6.94;100.00;100602.91;4985257;28;19918;-89
2024/02/18 20:25:48;;;;;;;;;;;;;;;6.93;100.00;100601.19;4988608;28;19974;-91
2024/02/18 20:28:14;;;;;;;;;;;;;;;6.96;100.00;100614.34;4987557;28;19918;-89
2024/02/18 20:30:39;;;;;;;;;;;;;;;6.94;100.00;100609.09;4985513;28;19932;-87
2024/02/18 20:33:04;;;;;;;;;;;;;;;6.97;100.00;100608.16;4986932;28;19929;-88
2024/02/18 20:35:29;;;;;;;;;;;;;;;6.94;100.00;100601.19;4986262;28;20444;-88
2024/02/18 20:37:55;;;;;;;;;;;;;;;6.95;100.00;100597.63;4986571;28;20357;-88
2024/02/18 20:40:20;;;;;;;;;;;;;;;6.96;100.00;100604.66;4987991;28;20373;-94
2024/02/18 20:42:50;;;;;;;;;;;;;;;6.97;100.00;100598.47;4988872;28;20384;-89
2024/02/18 20:45:15;;;;;;;;;;;;;;;6.97;100.00;100601.09;4988451;28;19921;-91
2024/02/18 20:47:43;;;;;;;;;;;;;;;7.01;100.00;100600.19;4986606;28;19918;-87
2024/02/18 20:50:08;;;;;;;;;;;;;;;7.06;100.00;100597.47;4987010;28;19930;-90
2024/02/18 20:52:34;;;;;;;;;;;;;;;7.04;100.00;100596.63;4985945;28;19914;-91
2024/02/18 20:55:03;;;;;;;;;;;;;;;7.02;100.00;100601.94;4986582;28;19926;-92
2024/02/18 20:57:31;;;;;;;;;;;;;;;6.99;100.00;100604.59;4984837;28;20317;-88
2024/02/18 20:59:57;;;;;;;;;;;;;;;7.01;100.00;100604.59;4987362;28;19985;-92
2024/02/18 21:02:40;;;;;;;;;;;;;;;;;;;;;
2024/02/18 21:05:05;;;;;;;;;;;;;;;7.06;100.00;100602.75;4988821;28;19929;-92
2024/02/18 21:07:31;;;;;;;;;;;;;;;7.03;100.00;100614.19;4989680;28;20017;-86
2024/02/18 21:09:56;;;;;;;;;;;;;;;7.10;100.00;100604.44;4988338;28;20382;-93
2024/02/18 21:12:23;;;;;;;;;;;;;;;7.07;100.00;100607.13;4987627;28;19926;-94
2024/02/18 21:14:48;;;;;;;;;;;;;;;7.01;100.00;100610.72;4988512;28;19926;-91
2024/02/18 21:17:14;;;;;;;;;;;;;;;7.01;100.00;100615.13;4990945;28;19918;-90
2024/02/18 21:19:39;;;;;;;;;;;;;;;7.04;100.00;100620.34;4996838;28;19925;-88
2024/02/18 21:22:04;;;;;;;;;;;;;;;7.04;100.00;100618.56;5000255;28;19925;-90
2024/02/18 21:24:30;;;;;;;;;;;;;;;6.98;100.00;100628.34;4991882;28;19942;-92
2024/02/18 21:26:55;;;;;;;;;;;;;;;7.00;100.00;100631.81;4995189;28;20424;-90
2024/02/18 21:29:21;;;;;;;;;;;;;;;7.02;100.00;100625.66;4984692;28;19921;-92
2024/02/18 21:31:46;;;;;;;;;;;;;;;7.03;100.00;100629.13;4989410;28;19929;-88
2024/02/18 21:34:11;;;;;;;;;;;;;;;7.05;100.00;100622.97;4990087;28;19918;-87
2024/02/18 21:36:36;;;;;;;;;;;;;;;6.99;100.00;100628.31;4986596;28;19968;-91
2024/02/18 21:39:04;;;;;;;;;;;;;;;7.03;100.00;100619.47;4985846;28;20357;-87
2024/02/18 21:41:29;;;;;;;;;;;;;;;7.00;100.00;100622.13;4985603;28;19926;-90
2024/02/18 21:43:55;;;;;;;;;;;;;;;7.05;100.00;100609.78;4986336;28;19918;-90
2024/02/18 21:46:20;;;;;;;;;;;;;;;7.07;100.00;100615.03;4989083;28;19918;-85
2024/02/18 21:48:46;;;;;;;;;;;;;;;7.06;100.00;100613.28;4986496;28;20273;-89
2024/02/18 21:51:11;;;;;;;;;;;;;;;7.07;100.00;100609.78;4989721;28;19934;-90
2024/02/18 21:53:36;;;;;;;;;;;;;;;7.05;100.00;100617.69;4986133;28;19914;-89
2024/02/18 21:56:02;;;;;;;;;;;;;;;7.04;100.00;100621.22;4986522;28;19972;-89
2024/02/18 21:58:28;;;;;;;;;;;;;;;7.05;100.00;100629.97;4987260;28;19926;-87
2024/02/18 22:00:57;;;;;;;;;;;;;;;7.02;100.00;100623.00;5009456;28;20052;-86
2024/02/18 22:03:22;;;;;;;;;;;;;;;7.06;100.00;100619.41;5019303;28;19977;-86
2024/02/18 22:05:47;;;;;;;;;;;;;;;7.10;100.00;100615.00;4999729;28;20349;-88
2024/02/18 22:08:12;;;;;;;;;;;;;;;7.13;100.00;100611.41;5019821;28;19964;-86
2024/02/18 22:10:41;;;;;;;;;;;;;;;7.06;100.00;100614.16;5021143;28;20392;-90
2024/02/18 22:13:06;;;;;;;;;;;;;;;7.04;100.00;100613.31;5016583;28;19918;-86
2024/02/18 22:15:34;;;;;;;;;;;;;;;7.05;100.00;100625.59;5013147;28;19925;-87
2024/02/18 22:17:59;;;;;;;;;;;;;;;7.05;100.00;100625.59;5014185;28;19918;-90
2024/02/18 22:20:26;;;;;;;;;;;;;;;7.02;100.00;100625.66;5013954;28;19928;-87
2024/02/18 22:22:52;;;;;;;;;;;;;;;7.03;100.00;100631.78;5014144;28;19917;-90
2024/02/18 22:25:32;;;;;;;;;;;;;;;7.07;100.00;100633.50;5014872;28;20228;-88
2024/02/18 22:28:07;;;;;;;;;;;;;;;7.01;100.00;100620.41;4996844;28;19961;-89
2024/02/18 22:30:38;;;;;;;;;;;;;;;7.01;100.00;100618.63;4994649;28;19922;-90
2024/02/18 22:33:54;;;;;;;;;;;;;;;7.01;100.00;100612.50;4996613;28;19917;-88
2024/02/18 22:36:24;;;;;;;;;;;;;;;7.04;100.00;100621.22;5012196;28;19925;-91
2024/02/18 22:39:01;;;;;;;;;;;;;;;;;;;;;
2024/02/18 22:41:42;;;;;;;;;;;;;;;;;;;;;
2024/02/18 22:44:10;;;;;;;;;;;;;;;7.00;100.00;100627.41;5011952;28;20361;-92
2024/02/18 22:46:38;;;;;;;;;;;;;;;7.01;100.00;100626.53;4994957;28;19918;-93
2024/02/18 22:49:05;;;;;;;;;;;;;;;7.02;100.00;100633.56;4995293;28;19920;-92
2024/02/18 22:52:01;;;;;;;;;;;;;;;;;;;;;
2024/02/18 22:54:29;;;;;;;;;;;;;;;7.02;100.00;100643.19;5012449;28;19917;-90
2024/02/18 22:57:05;;;;;;;;;;;;;;;7.03;100.00;100645.81;4995557;28;20381;-93
2024/02/18 22:59:30;;;;;;;;;;;;;;;7.03;100.00;100650.22;4994098;28;19960;-90
2024/02/18 23:01:55;;;;;;;;;;;;;;;6.96;100.00;100652.09;5013666;28;20342;-90
2024/02/18 23:04:20;;;;;;;;;;;;;;;6.96;100.00;100654.72;5012888;28;19921;-91
2024/02/18 23:06:49;;;;;;;;;;;;;;;6.98;100.00;100652.91;4994633;28;19924;-92
2024/02/18 23:09:19;;;;;;;;;;;;;;;7.01;100.00;100663.41;4995345;28;19967;-92
2024/02/18 23:11:56;;;;;;;;;;;;;;;;;;;;;
2024/02/18 23:14:22;;;;;;;;;;;;;;;7.05;100.00;100664.25;5011548;28;20300;-92
2024/02/18 23:16:47;;;;;;;;;;;;;;;6.97;100.00;100672.25;4995329;28;20030;-89
2024/02/18 23:19:13;;;;;;;;;;;;;;;7.00;100.00;100661.66;5012998;28;20260;-92
2024/02/18 23:21:40;;;;;;;;;;;;;;;7.03;100.00;100661.63;4995100;28;19922;-91
2024/02/18 23:24:08;;;;;;;;;;;;;;;6.95;100.00;100665.28;5012685;28;19917;-91
2024/02/18 23:26:36;;;;;;;;;;;;;;;7.00;100.00;100661.66;5012447;28;19928;-91
2024/02/18 23:29:01;;;;;;;;;;;;;;;6.98;100.00;100668.72;4993868;28;19922;-90
2024/02/18 23:31:29;;;;;;;;;;;;;;;7.06;100.00;100655.44;4995337;28;19918;-90
2024/02/18 23:33:55;;;;;;;;;;;;;;;7.02;100.00;100669.56;4995018;28;20245;-90
2024/02/18 23:36:25;;;;;;;;;;;;;;;7.04;100.00;100663.38;5012476;28;20391;-91
2024/02/18 23:38:51;;;;;;;;;;;;;;;7.02;100.00;100670.44;4994411;28;20033;-88
2024/02/18 23:41:23;;;;;;;;;;;;;;;7.03;100.00;100666.91;4994855;28;20069;-90
2024/02/18 23:43:50;;;;;;;;;;;;;;;7.02;100.00;100665.16;4992695;28;19921;-90
2024/02/18 23:46:18;;;;;;;;;;;;;;;7.08;100.00;100665.09;5012448;28;19952;-91
2024/02/18 23:48:53;;;;;;;;;;;;;;;7.06;100.00;100661.59;4994869;28;19990;-91
2024/02/18 23:51:18;;;;;;;;;;;;;;;6.99;100.00;100662.56;4994593;28;19929;-92
2024/02/18 23:53:49;;;;;;;;;;;;;;;6.97;100.00;100659.06;5012428;28;19918;-91
2024/02/18 23:56:16;;;;;;;;;;;;;;;6.99;100.00;100659.94;4994742;28;19971;-90
2024/02/18 23:58:42;;;;;;;;;;;;;;;7.04;100.00;100654.63;5011316;28;20398;-91
